Time;durP1;ratioP1;P1;durP2;ratioP2;P2;SDS_P1;SDS_P2;PMS_P1;PMS_P2;Temp;Humidity;BMP_temperature;BMP_pressure;BME280_temperature;BME280_humidity;BME280_pressure;Samples;Min_cycle;Max_cycle;Signal;HPM_P1;HPM_P2
2021/10/03 00:05:05;;;;;;;5.93;2.70;;;;;;;15.57;78.23;98093.50;4914353;28;20056;-84
2021/10/03 00:10:54;;;;;;;4.13;2.33;;;;;;;15.51;77.50;98080.78;4926740;28;20424;-84
2021/10/03 00:13:30;;;;;;;4.32;2.90;;;;;;;15.49;77.30;98073.88;4973847;28;20498;-85
2021/10/03 00:16:02;;;;;;;3.50;2.58;;;;;;;15.47;77.12;98076.84;4974073;28;20474;-85
2021/10/03 00:18:46;;;;;;;5.22;2.88;;;;;;;15.52;76.90;98089.81;4974361;28;20061;-85
2021/10/03 00:21:22;;;;;;;3.97;2.85;;;;;;;15.46;75.64;98077.94;4974238;28;20521;-85
2021/10/03 00:23:50;;;;;;;6.57;2.70;;;;;;;15.63;75.53;98091.69;4973957;28;20046;-85
2021/10/03 00:28:58;;;;;;;3.83;2.72;;;;;;;15.57;74.61;98090.75;4971492;28;20442;-85
2021/10/03 00:31:25;;;;;;;2.90;2.38;;;;;;;15.56;74.93;98093.75;4973539;28;20051;-85
2021/10/03 00:33:57;;;;;;;2.92;2.55;;;;;;;15.64;76.09;98111.69;4974093;28;20384;-85
2021/10/03 00:36:25;;;;;;;3.70;2.33;;;;;;;15.56;75.60;98116.47;4973834;28;20494;-85
2021/10/03 00:38:54;;;;;;;3.42;2.30;;;;;;;15.51;76.14;98097.22;4974222;28;20427;-85
2021/10/03 00:41:33;;;;;;;5.50;2.30;;;;;;;15.49;76.32;98098.53;4973849;28;20051;-85
2021/10/03 00:44:45;;;;;;;3.53;2.30;;;;;;;15.39;76.17;98083.53;4973113;28;20082;-84
2021/10/03 00:47:35;;;;;;;3.88;2.50;;;;;;;15.48;75.70;98107.84;4973905;28;20054;-85
2021/10/03 00:53:21;;;;;;;4.18;2.33;;;;;;;15.26;78.41;98086.56;4892266;29;20080;-85
2021/10/03 00:56:15;;;;;;;2.97;2.30;;;;;;;15.26;77.61;98075.59;4971116;28;20105;-84
2021/10/03 00:58:58;;;;;;;5.40;2.78;;;;;;;15.40;76.34;98092.59;4956903;28;20055;-85
2021/10/03 01:01:39;;;;;;;6.38;2.75;;;;;;;15.37;75.98;98068.44;4971655;28;20047;-85
2021/10/03 01:04:12;;;;;;;6.28;2.60;;;;;;;15.29;75.15;98077.84;4973217;28;20057;-85
2021/10/03 01:06:56;;;;;;;5.55;2.33;;;;;;;15.33;75.53;98067.28;4971630;28;20089;-85
2021/10/03 01:09:27;;;;;;;3.25;2.35;;;;;;;15.34;75.70;98067.03;4972560;28;20054;-84
2021/10/03 01:11:54;;;;;;;4.90;2.78;;;;;;;15.49;74.68;98071.13;4972916;28;20061;-85
2021/10/03 01:14:21;;;;;;;5.18;2.38;;;;;;;15.49;74.69;98080.19;4972839;28;20053;-85
2021/10/03 01:16:50;;;;;;;4.25;2.67;;;;;;;15.52;74.58;98068.75;4973272;28;20042;-85
2021/10/03 01:19:17;;;;;;;2.92;2.03;;;;;;;15.30;75.74;98056.81;4973626;28;20051;-85
2021/10/03 01:21:47;;;;;;;4.85;2.45;;;;;;;15.36;75.56;98058.56;4973348;28;20547;-85
2021/10/03 01:24:15;;;;;;;3.30;2.20;;;;;;;15.40;75.03;98065.19;4956013;28;20058;-85
2021/10/03 01:26:43;;;;;;;3.53;2.42;;;;;;;15.44;74.84;98062.81;4973105;28;20043;-85
2021/10/03 01:29:12;;;;;;;3.78;2.53;;;;;;;15.44;74.14;98063.66;4973102;28;20384;-85
2021/10/03 01:31:39;;;;;;;3.30;2.27;;;;;;;15.29;74.74;98045.00;4973446;28;20134;-85
2021/10/03 01:34:06;;;;;;;3.30;2.50;;;;;;;15.40;74.53;98057.84;4972973;28;20064;-85
2021/10/03 01:36:35;;;;;;;3.05;2.30;;;;;;;15.33;74.83;98040.72;4972138;28;20057;-85
2021/10/03 01:39:04;;;;;;;4.45;2.25;;;;;;;15.29;74.57;98036.78;4973747;28;20047;-84
2021/10/03 01:41:31;;;;;;;2.25;1.80;;;;;;;15.38;73.47;98032.59;4972631;28;20479;-85
2021/10/03 01:44:00;;;;;;;4.30;2.00;;;;;;;15.33;73.72;98026.19;4973461;28;20051;-84
2021/10/03 01:46:27;;;;;;;2.15;1.73;;;;;;;15.45;72.93;98037.94;4971412;28;20506;-84
2021/10/03 01:48:54;;;;;;;3.65;2.33;;;;;;;15.38;73.01;98018.06;4973058;28;20077;-85
2021/10/03 01:51:21;;;;;;;4.05;1.92;;;;;;;15.49;73.28;98028.16;4972974;28;20047;-84
2021/10/03 01:53:51;;;;;;;3.45;2.20;;;;;;;15.39;73.46;98017.00;4973224;28;20125;-84
2021/10/03 01:56:21;;;;;;;4.38;2.25;;;;;;;15.36;73.65;98015.56;4972740;28;20049;-85
2021/10/03 01:58:53;;;;;;;3.35;2.42;;;;;;;15.30;74.11;97999.31;4972705;28;20402;-85
2021/10/03 02:01:24;;;;;;;4.25;2.47;;;;;;;15.28;74.05;98004.19;4972843;28;20157;-85
2021/10/03 02:03:51;;;;;;;3.25;2.03;;;;;;;15.38;73.41;98015.34;4971770;28;20109;-85
2021/10/03 02:06:18;;;;;;;2.95;1.95;;;;;;;15.41;73.25;98012.09;4973639;28;20049;-83
2021/10/03 02:08:53;;;;;;;3.63;2.17;;;;;;;15.42;72.58;98005.56;4976795;28;20134;-84
2021/10/03 02:11:23;;;;;;;4.25;2.10;;;;;;;15.39;72.54;97998.66;4977115;28;20411;-84
2021/10/03 02:13:51;;;;;;;;;;;;;;;15.43;71.81;97999.00;4977481;28;20395;-84
2021/10/03 02:16:18;;;;;;;2.88;2.38;;;;;;;15.33;71.94;97982.38;4976422;28;20322;-84
2021/10/03 02:18:46;;;;;;;3.40;2.38;;;;;;;15.49;71.43;97992.56;4977278;28;20443;-84
2021/10/03 02:21:14;;;;;;;2.78;2.30;;;;;;;15.32;71.37;97962.38;4976296;28;20153;-84
2021/10/03 02:23:41;;;;;;;3.05;1.98;;;;;;;15.42;71.64;97986.38;4976526;28;20055;-85
2021/10/03 02:26:09;;;;;;;4.35;2.38;;;;;;;15.43;71.09;97987.22;4976355;28;20522;-84
2021/10/03 02:28:41;;;;;;;2.47;1.95;;;;;;;15.31;71.20;97968.09;4976660;28;20051;-84
2021/10/03 02:31:11;;;;;;;3.65;2.22;;;;;;;15.37;70.75;97978.06;4976306;28;20054;-84
2021/10/03 02:33:40;;;;;;;4.22;2.17;;;;;;;15.44;71.06;97994.34;4976570;28;20061;-85
2021/10/03 02:36:12;;;;;;;3.80;2.60;;;;;;;15.43;72.34;97989.94;4975852;28;20134;-85
2021/10/03 02:38:40;;;;;;;4.68;2.42;;;;;;;15.19;72.64;97969.00;4976168;28;20423;-84
2021/10/03 02:41:09;;;;;;;3.75;2.70;;;;;;;15.25;74.12;97977.28;4976127;28;20106;-84
2021/10/03 02:43:39;;;;;;;3.42;2.30;;;;;;;15.10;74.98;97983.28;4976067;28;20062;-84
2021/10/03 02:46:06;;;;;;;3.88;2.33;;;;;;;15.07;76.01;97970.94;4976344;28;20066;-85
2021/10/03 02:48:36;;;;;;;3.28;2.38;;;;;;;15.03;76.41;97964.28;4976493;28;20105;-85
2021/10/03 02:51:03;;;;;;;4.65;2.10;;;;;;;14.93;78.08;97959.41;4976659;28;20062;-85
2021/10/03 02:53:31;;;;;;;3.78;2.65;;;;;;;14.90;78.30;97954.44;4976008;28;20047;-84
2021/10/03 02:55:58;;;;;;;3.88;2.20;;;;;;;14.87;79.10;97946.72;4975724;28;20058;-84
2021/10/03 02:58:27;;;;;;;3.40;2.30;;;;;;;14.95;77.73;97953.69;4975971;28;20113;-84
2021/10/03 03:00:59;;;;;;;3.53;2.23;;;;;;;14.84;77.18;97936.25;4976064;28;20487;-85
2021/10/03 03:03:26;;;;;;;3.63;2.38;;;;;;;14.97;75.52;97943.38;4976186;28;20055;-85
2021/10/03 03:05:53;;;;;;;4.70;2.40;;;;;;;14.96;73.92;97947.16;4975876;28;20146;-83
2021/10/03 03:08:26;;;;;;;2.92;2.10;;;;;;;14.97;72.99;97933.25;4975939;28;20395;-84
2021/10/03 03:10:53;;;;;;;7.13;2.10;;;;;;;14.98;72.50;97934.91;4975030;28;20062;-84
2021/10/03 03:13:19;;;;;;;2.70;1.83;;;;;;;15.05;72.54;97942.97;4976427;28;20086;-84
2021/10/03 03:15:47;;;;;;;3.28;2.17;;;;;;;15.12;72.28;97957.34;4975531;28;20049;-85
2021/10/03 03:18:16;;;;;;;3.63;2.22;;;;;;;14.92;74.34;97935.88;4974873;28;20050;-84
2021/10/03 03:20:43;;;;;;;4.40;2.08;;;;;;;14.91;74.84;97939.69;4975936;28;20074;-84
2021/10/03 03:23:13;;;;;;;4.22;2.58;;;;;;;14.85;75.11;97930.53;4975225;28;20061;-84
2021/10/03 03:25:42;;;;;;;5.57;1.90;;;;;;;14.86;74.38;97932.22;4975316;28;20050;-85
2021/10/03 03:28:13;;;;;;;3.50;2.30;;;;;;;14.86;71.56;97929.47;4975458;28;20061;-85
2021/10/03 03:30:44;;;;;;;4.55;2.00;;;;;;;14.94;69.95;97930.16;4976202;28;20085;-85
2021/10/03 03:33:15;;;;;;;2.95;1.70;;;;;;;15.10;69.94;97947.69;4975410;28;20050;-85
2021/10/03 03:35:43;;;;;;;2.90;1.77;;;;;;;14.98;69.44;97915.75;4975058;28;20059;-84
2021/10/03 03:38:11;;;;;;;3.88;1.80;;;;;;;15.15;69.13;97932.22;4974477;28;20549;-84
2021/10/03 03:40:41;;;;;;;2.90;1.80;;;;;;;15.09;68.84;97918.69;4975427;28;20133;-84
2021/10/03 03:43:10;;;;;;;2.63;2.03;;;;;;;15.10;69.34;97920.34;4975078;28;20141;-84
2021/10/03 03:45:37;;;;;;;2.85;1.70;;;;;;;15.11;68.72;97900.09;4974927;28;20051;-84
2021/10/03 03:48:05;;;;;;;4.93;1.90;;;;;;;15.17;68.05;97926.50;4975288;28;20058;-85
2021/10/03 03:50:35;;;;;;;2.38;1.90;;;;;;;15.15;67.69;97921.28;4975144;28;20058;-85
2021/10/03 03:53:05;;;;;;;3.30;2.20;;;;;;;15.22;70.05;97927.44;4975132;28;20094;-83
2021/10/03 03:55:32;;;;;;;5.40;2.40;;;;;;;15.06;71.02;97916.44;4974952;28;20554;-84
2021/10/03 03:57:59;;;;;;;4.10;2.20;;;;;;;15.09;70.29;97916.78;4975068;28;20078;-84
2021/10/03 04:00:26;;;;;;;3.55;2.08;;;;;;;14.97;69.32;97903.13;4975060;28;20057;-84
2021/10/03 04:02:55;;;;;;;2.78;1.50;;;;;;;14.99;68.67;97906.44;4974454;28;20487;-84
2021/10/03 04:05:22;;;;;;;3.28;1.88;;;;;;;14.99;69.98;97906.44;4974081;28;20574;-84
2021/10/03 04:07:52;;;;;;;3.30;1.90;;;;;;;15.03;70.62;97931.44;4974701;28;20043;-84
2021/10/03 04:10:21;;;;;;;2.17;1.50;;;;;;;14.94;69.99;97911.84;4974934;28;20053;-84
2021/10/03 04:12:51;;;;;;;2.45;2.10;;;;;;;14.96;71.29;97926.09;4974628;28;20414;-84
2021/10/03 04:15:18;;;;;;;5.13;2.00;;;;;;;14.84;71.30;97892.47;4964297;28;20141;-84
2021/10/03 04:17:48;;;;;;;2.42;1.70;;;;;;;14.92;68.47;97905.78;4974540;28;20050;-85
2021/10/03 04:20:17;;;;;;;;;;;;;;;14.98;70.46;97925.84;4975057;28;20463;-85
2021/10/03 04:22:44;;;;;;;5.18;1.92;;;;;;;14.96;71.70;97919.81;4974573;28;20453;-84
2021/10/03 04:25:13;;;;;;;4.28;2.00;;;;;;;14.86;71.75;97924.00;4974485;28;20496;-84
2021/10/03 04:27:42;;;;;;;3.53;2.40;;;;;;;14.67;72.46;97892.44;4974150;28;20083;-84
2021/10/03 04:30:09;;;;;;;3.65;1.77;;;;;;;14.62;74.54;97906.00;4974292;28;20047;-84
2021/10/03 04:32:41;;;;;;;3.13;2.00;;;;;;;14.61;75.33;97905.16;4974190;28;20102;-84
2021/10/03 04:35:11;;;;;;;5.25;2.55;;;;;;;14.55;75.27;97889.69;4971965;28;20046;-84
2021/10/03 04:37:38;;;;;;;3.17;2.15;;;;;;;14.52;73.45;97887.44;4973702;28;20074;-84
2021/10/03 04:40:10;;;;;;;2.97;1.77;;;;;;;14.51;71.28;97877.56;4974359;28;20447;-84
2021/10/03 04:42:37;;;;;;;6.03;2.25;;;;;;;14.72;72.44;97905.38;4974226;28;20047;-84
2021/10/03 04:45:07;;;;;;;3.03;2.22;;;;;;;14.62;74.47;97895.06;4973926;28;20063;-84
2021/10/03 04:47:37;;;;;;;3.85;2.50;;;;;;;14.54;75.20;97876.25;4973922;28;20423;-84
2021/10/03 04:50:05;;;;;;;3.42;2.40;;;;;;;14.46;76.67;97872.81;4973219;28;20055;-83
2021/10/03 04:52:32;;;;;;;3.03;2.00;;;;;;;14.51;78.15;97893.97;4969586;28;20056;-83
2021/10/03 04:54:59;;;;;;;3.08;2.13;;;;;;;14.44;77.48;97880.44;4973334;28;20054;-83
2021/10/03 04:57:26;;;;;;;3.08;2.10;;;;;;;14.52;75.65;97881.97;4974227;28;20050;-83
2021/10/03 04:59:56;;;;;;;3.42;2.20;;;;;;;14.52;72.84;97884.72;4974080;28;20134;-83
2021/10/03 05:02:26;;;;;;;2.90;1.85;;;;;;;14.52;74.24;97874.59;4974007;28;20046;-84
2021/10/03 05:04:59;;;;;;;2.63;1.73;;;;;;;14.54;73.02;97873.53;4973635;28;20065;-83
2021/10/03 05:07:29;;;;;;;4.32;2.30;;;;;;;14.68;72.21;97894.91;4972926;28;20070;-84
2021/10/03 05:10:03;;;;;;;3.90;2.90;;;;;;;14.72;72.40;97897.16;4974058;28;20047;-84
2021/10/03 05:12:32;;;;;;;4.28;2.40;;;;;;;14.84;70.18;97900.69;4973598;28;20390;-82
2021/10/03 05:15:02;;;;;;;5.93;2.60;;;;;;;14.82;69.87;97883.69;4973368;28;20513;-84
2021/10/03 05:18:04;;;;;;;3.10;2.25;;;;;;;14.80;71.66;97888.59;4961936;28;20047;-85
2021/10/03 05:20:44;;;;;;;2.78;1.85;;;;;;;14.93;72.48;97884.72;4972244;28;20046;-84
2021/10/03 05:23:11;;;;;;;2.65;2.08;;;;;;;14.80;71.81;97870.25;4971315;28;20051;-83
2021/10/03 05:25:38;;;;;;;3.33;2.15;;;;;;;14.76;71.54;97871.81;4973232;28;20082;-84
2021/10/03 05:28:05;;;;;;;3.40;2.00;;;;;;;14.76;69.56;97871.81;4973303;28;20055;-84
2021/10/03 05:30:34;;;;;;;4.80;2.30;;;;;;;14.82;68.90;97867.28;4973107;28;20050;-84
2021/10/03 05:33:04;;;;;;;2.70;1.90;;;;;;;14.97;70.01;97867.56;4972889;28;20057;-84
2021/10/03 05:35:31;;;;;;;2.88;1.88;;;;;;;15.04;69.94;97871.00;4972990;28;20055;-83
2021/10/03 05:37:58;;;;;;;3.78;2.00;;;;;;;15.01;69.20;97885.16;4972937;28;20062;-83
2021/10/03 05:40:25;;;;;;;3.70;2.13;;;;;;;15.01;73.64;97885.16;4971699;28;20491;-84
2021/10/03 05:42:54;;;;;;;4.72;2.05;;;;;;;15.01;75.08;97896.09;4973094;28;20057;-84
2021/10/03 05:45:22;;;;;;;3.20;2.10;;;;;;;15.00;79.39;97901.81;4973274;28;20064;-84
2021/10/03 05:47:49;;;;;;;3.50;2.17;;;;;;;14.86;79.45;97896.66;4973277;28;20062;-84
2021/10/03 05:50:27;;;;;;;3.17;2.03;;;;;;;14.78;80.50;97883.34;4973388;28;20073;-84
2021/10/03 05:53:07;;;;;;;2.60;1.75;;;;;;;14.71;81.79;97890.88;4974597;28;20427;-84
2021/10/03 05:55:39;;;;;;;3.77;2.63;;;;;;;14.61;80.29;97877.81;4973621;28;20101;-84
2021/10/03 05:58:08;;;;;;;3.65;2.50;;;;;;;14.77;81.59;97903.56;4972685;28;20059;-84
2021/10/03 06:00:39;;;;;;;2.95;2.25;;;;;;;14.73;81.04;97898.84;4973901;28;20105;-84
2021/10/03 06:03:06;;;;;;;2.70;2.08;;;;;;;14.70;80.81;97894.69;4972437;28;20097;-84
2021/10/03 06:05:41;;;;;;;2.90;2.13;;;;;;;14.79;81.01;97903.34;4972972;28;20047;-84
2021/10/03 06:08:08;;;;;;;2.70;2.10;;;;;;;14.67;80.11;97884.22;4972335;28;20472;-84
2021/10/03 06:10:38;;;;;;;13.23;8.35;;;;;;;14.78;78.01;97891.53;4973209;28;20109;-84
2021/10/03 06:13:06;;;;;;;;;;;;;;;14.94;77.89;97905.53;4967130;28;20137;-84
2021/10/03 06:15:35;;;;;;;2.50;2.10;;;;;;;14.97;74.85;97903.13;4964681;28;20438;-84
2021/10/03 06:18:03;;;;;;;4.60;1.83;;;;;;;14.97;74.54;97919.56;4972356;28;20069;-84
2021/10/03 06:20:31;;;;;;;4.00;1.90;;;;;;;14.82;73.60;97884.50;4972933;28;20055;-85
2021/10/03 06:23:02;;;;;;;4.30;1.73;;;;;;;15.13;73.56;97892.47;4972509;28;20057;-84
2021/10/03 06:25:29;;;;;;;3.20;2.22;;;;;;;15.10;73.41;97879.28;4952897;29;20055;-84
2021/10/03 06:27:56;;;;;;;1.75;1.60;;;;;;;15.03;71.65;97869.31;4963511;28;20077;-84
2021/10/03 06:30:23;;;;;;;5.65;2.10;;;;;;;15.09;73.09;97889.41;4965532;28;20062;-83
2021/10/03 06:32:50;;;;;;;3.25;1.92;;;;;;;15.12;73.98;97861.53;4971947;28;20047;-85
2021/10/03 06:35:18;;;;;;;3.05;2.00;;;;;;;15.26;72.44;97899.56;4972570;28;20049;-84
2021/10/03 06:37:53;;;;;;;4.93;2.00;;;;;;;15.30;72.34;97885.13;4972140;28;20085;-83
2021/10/03 06:40:23;;;;;;;4.47;1.80;;;;;;;15.43;70.06;97884.00;4972134;28;20058;-83
2021/10/03 06:42:50;;;;;;;2.42;1.75;;;;;;;15.37;70.60;97894.03;4972459;28;20061;-83
2021/10/03 06:45:26;;;;;;;2.40;1.55;;;;;;;15.46;70.07;97910.03;4967957;28;20062;-84
2021/10/03 06:47:54;;;;;;;2.50;1.55;;;;;;;15.42;70.99;97897.94;4968564;28;20101;-84
2021/10/03 06:50:21;;;;;;;4.20;2.22;;;;;;;15.58;71.57;97922.59;4971897;28;20047;-84
2021/10/03 06:52:48;;;;;;;4.50;2.20;;;;;;;15.59;72.01;97893.28;4974182;28;20073;-84
2021/10/03 06:55:17;;;;;;;2.80;1.92;;;;;;;15.75;71.97;97886.97;4975925;28;20082;-84
2021/10/03 06:57:46;;;;;;;2.90;1.63;;;;;;;15.78;71.41;97898.53;4976194;28;20049;-84
2021/10/03 07:00:13;;;;;;;3.28;2.25;;;;;;;15.82;69.44;97896.97;4974519;28;20047;-84
2021/10/03 07:02:44;;;;;;;4.70;3.10;;;;;;;15.77;69.44;97888.66;4965379;28;20047;-84
2021/10/03 07:05:11;;;;;;;2.80;2.05;;;;;;;15.98;69.48;97870.63;4975926;28;20082;-84
2021/10/03 07:07:38;;;;;;;2.72;1.83;;;;;;;16.08;67.18;97879.00;4975327;28;20047;-84
2021/10/03 07:10:11;;;;;;;7.38;1.65;;;;;;;16.07;67.86;97893.78;4975272;28;20105;-84
2021/10/03 07:12:41;;;;;;;3.10;1.85;;;;;;;16.24;67.52;97901.97;4975686;28;20054;-84
2021/10/03 07:15:11;;;;;;;3.00;1.80;;;;;;;16.26;67.92;97889.69;4974529;28;20562;-84
2021/10/03 07:17:38;;;;;;;2.72;1.95;;;;;;;16.35;69.19;97923.00;4973989;28;20046;-83
2021/10/03 07:20:07;;;;;;;2.88;1.92;;;;;;;16.28;71.17;97927.81;4975273;28;20055;-84
2021/10/03 07:22:37;;;;;;;2.40;1.58;;;;;;;16.28;70.89;97911.38;4975508;28;20105;-84
2021/10/03 07:25:05;;;;;;;8.88;2.10;;;;;;;16.43;69.69;97928.03;4974421;28;20078;-84
2021/10/03 07:27:37;;;;;;;3.30;2.45;;;;;;;16.36;69.09;97932.84;4975274;28;20468;-84
2021/10/03 07:30:05;;;;;;;3.13;1.95;;;;;;;16.46;70.34;97926.69;4974665;28;20055;-84
2021/10/03 07:32:33;;;;;;;4.47;1.80;;;;;;;16.49;69.61;97925.38;4975821;28;20051;-85
2021/10/03 07:35:02;;;;;;;2.20;1.70;;;;;;;16.40;68.46;97914.00;4973652;28;20121;-85
2021/10/03 07:37:29;;;;;;;2.72;1.60;;;;;;;16.46;67.85;97929.44;4974921;28;20097;-85
2021/10/03 07:39:57;;;;;;;4.75;1.88;;;;;;;16.55;68.54;97919.69;4975055;28;20055;-85
2021/10/03 07:42:27;;;;;;;3.10;1.90;;;;;;;16.59;67.89;97923.59;4974229;28;20051;-84
2021/10/03 07:44:54;;;;;;;2.47;1.90;;;;;;;16.57;68.02;97919.44;4974489;28;20050;-85
2021/10/03 07:47:21;;;;;;;3.58;1.35;;;;;;;16.62;68.78;97934.06;4974830;28;20550;-84
2021/10/03 07:49:50;;;;;;;3.35;1.83;;;;;;;16.76;67.75;97923.53;4975175;28;20046;-85
2021/10/03 07:52:16;;;;;;;5.07;1.88;;;;;;;16.69;66.93;97920.13;4973756;28;20525;-83
2021/10/03 07:54:43;;;;;;;2.65;2.00;;;;;;;16.67;68.27;97926.97;4972168;28;20058;-85
2021/10/03 07:57:12;;;;;;;2.55;1.65;;;;;;;16.60;68.58;97900.53;4974179;28;20046;-85
2021/10/03 07:59:42;;;;;;;7.70;2.00;;;;;;;16.64;67.65;97918.16;4974152;28;20058;-85
2021/10/03 08:02:09;;;;;;;1.60;1.30;;;;;;;16.63;67.42;97907.44;4974453;28;20062;-84
2021/10/03 08:04:36;;;;;;;2.60;1.80;;;;;;;16.77;66.36;97910.63;4974241;28;20352;-85
2021/10/03 08:07:04;;;;;;;2.45;1.70;;;;;;;16.86;66.75;97916.50;4974745;28;20067;-85
2021/10/03 08:09:31;;;;;;;2.63;1.70;;;;;;;16.72;67.48;97897.66;4973748;28;20050;-85
2021/10/03 08:12:00;;;;;;;2.67;1.80;;;;;;;16.81;67.08;97906.28;4958240;28;20062;-84
2021/10/03 08:14:27;;;;;;;3.83;1.63;;;;;;;16.83;66.68;97911.50;4964298;28;20134;-85
2021/10/03 08:16:54;;;;;;;7.22;1.80;;;;;;;16.94;66.13;97932.56;4974655;28;20508;-85
2021/10/03 08:19:21;;;;;;;2.58;1.80;;;;;;;16.96;67.93;97916.66;4973162;28;20065;-85
2021/10/03 08:21:48;;;;;;;2.85;1.67;;;;;;;16.95;67.42;97921.31;4974351;28;20054;-85
2021/10/03 08:24:16;;;;;;;2.05;1.75;;;;;;;16.90;69.05;97914.94;4973970;28;20376;-85
2021/10/03 08:26:43;;;;;;;2.35;1.83;;;;;;;16.87;68.62;97910.78;4973319;28;20258;-84
2021/10/03 08:29:10;;;;;;;4.35;1.77;;;;;;;16.88;67.52;97908.88;4973882;28;20138;-84
2021/10/03 08:31:37;;;;;;;1.60;1.40;;;;;;;17.02;66.96;97915.63;4974027;28;20050;-84
2021/10/03 08:34:04;;;;;;;2.42;1.58;;;;;;;16.95;66.17;97917.72;4974212;28;20062;-84
2021/10/03 08:36:31;;;;;;;2.40;1.80;;;;;;;16.79;66.88;97900.22;4973364;28;20055;-84
2021/10/03 08:38:59;;;;;;;3.15;1.67;;;;;;;16.90;66.63;97913.00;4973958;28;20061;-84
2021/10/03 08:44:09;;;;;;;2.83;2.13;;;;;;;16.90;67.38;97931.41;4953391;28;20061;-84
2021/10/03 08:46:37;;;;;;;3.90;2.00;;;;;;;16.83;67.82;97922.50;4973629;28;20490;-84
2021/10/03 08:49:04;;;;;;;3.20;1.83;;;;;;;16.87;67.46;97910.78;4973565;28;20082;-84
2021/10/03 08:51:34;;;;;;;2.47;1.58;;;;;;;16.86;66.67;97906.34;4974122;28;20054;-84
2021/10/03 08:54:01;;;;;;;;;;;;;;;16.98;66.00;97909.81;4974154;28;20057;-84
2021/10/03 08:56:29;;;;;;;3.05;1.70;;;;;;;16.98;65.54;97911.72;4973453;28;19921;-84
2021/10/03 08:58:56;;;;;;;3.22;1.55;;;;;;;16.96;65.14;97895.50;4973926;28;20051;-84
2021/10/03 09:01:26;;;;;;;3.30;1.63;;;;;;;16.99;65.82;97903.22;4965970;28;20058;-84
2021/10/03 09:03:55;;;;;;;3.30;1.50;;;;;;;16.95;65.73;97909.50;4972958;28;20154;-85
2021/10/03 09:06:25;;;;;;;5.43;1.88;;;;;;;16.99;70.27;97929.84;4973714;28;20411;-85
2021/10/03 09:08:56;;;;;;;8.18;3.67;;;;;;;17.01;71.89;97921.38;4973785;28;20142;-84
2021/10/03 09:11:24;;;;;;;3.00;2.20;;;;;;;16.83;72.60;97915.09;4973508;28;20118;-84
2021/10/03 09:13:54;;;;;;;7.35;2.15;;;;;;;16.91;73.21;97935.81;4973102;28;20051;-84
2021/10/03 09:16:36;;;;;;;12.75;2.28;;;;;;;17.05;72.68;97928.00;4970768;28;20079;-84
2021/10/03 09:19:16;;;;;;;2.05;1.50;;;;;;;16.87;71.78;97935.47;4971720;28;20434;-85
2021/10/03 09:21:59;;;;;;;3.78;1.77;;;;;;;16.88;74.20;97941.81;4973105;28;20043;-84
2021/10/03 09:24:41;;;;;;;7.20;3.47;;;;;;;16.89;74.89;97922.34;4967941;28;20089;-85
2021/10/03 09:27:08;;;;;;;6.15;2.05;;;;;;;16.73;72.83;97913.06;4972250;28;20057;-84
2021/10/03 09:29:49;;;;;;;7.50;2.10;;;;;;;16.81;74.13;97941.97;4973673;28;20285;-85
2021/10/03 09:32:25;;;;;;;8.70;2.00;;;;;;;16.92;73.46;97942.94;4972299;28;20682;-85
2021/10/03 09:35:06;;;;;;;3.28;2.22;;;;;;;16.88;75.40;97937.16;4963129;28;20053;-85
2021/10/03 09:37:48;;;;;;;3.70;2.05;;;;;;;16.71;75.29;97915.22;4981977;28;20073;-85
2021/10/03 09:40:28;;;;;;;8.02;2.33;;;;;;;16.73;75.46;97932.25;4973395;28;20066;-84
2021/10/03 09:43:15;;;;;;;5.20;2.13;;;;;;;16.73;74.92;97920.47;4972683;28;20043;-84
2021/10/03 09:46:02;;;;;;;19.20;4.45;;;;;;;16.73;73.42;97926.78;4972735;28;20055;-85
2021/10/03 09:48:29;;;;;;;3.22;2.30;;;;;;;16.88;76.68;97926.16;4973057;28;20046;-84
2021/10/03 09:51:05;;;;;;;3.85;2.15;;;;;;;16.74;76.05;97922.94;4973249;28;20138;-84
2021/10/03 09:53:43;;;;;;;3.05;1.90;;;;;;;16.74;74.72;97919.38;4969230;28;20051;-85
2021/10/03 09:56:17;;;;;;;3.08;1.88;;;;;;;16.81;73.76;97929.06;4972709;28;20098;-85
2021/10/03 09:58:55;;;;;;;2.30;1.70;;;;;;;16.83;74.54;97926.09;4972279;28;20062;-84
2021/10/03 10:01:30;;;;;;;2.50;1.60;;;;;;;16.87;73.23;97921.75;4972651;28;20051;-84
2021/10/03 10:03:58;;;;;;;2.10;1.70;;;;;;;16.83;73.24;97925.25;4971623;28;20499;-84
2021/10/03 10:06:32;;;;;;;4.78;2.00;;;;;;;16.86;77.24;97925.56;4972036;28;20078;-85
2021/10/03 10:09:05;;;;;;;4.43;2.17;;;;;;;16.92;74.39;97934.72;4972176;28;20058;-85
2021/10/03 10:11:49;;;;;;;3.40;1.75;;;;;;;16.93;74.02;97930.88;4972146;28;20058;-84
2021/10/03 10:14:26;;;;;;;3.05;1.98;;;;;;;16.95;72.87;97935.03;4972185;28;20054;-84
2021/10/03 10:17:01;;;;;;;2.85;2.20;;;;;;;17.04;71.91;97937.31;4971304;28;20054;-85
2021/10/03 10:19:38;;;;;;;8.13;3.83;;;;;;;16.89;73.08;97916.00;4972244;28;20134;-85
2021/10/03 10:22:38;;;;;;;8.63;2.30;;;;;;;16.95;72.88;97917.72;4972105;28;20511;-85
2021/10/03 10:25:38;;;;;;;2.17;1.75;;;;;;;16.96;76.85;97924.88;4972288;28;20054;-85
2021/10/03 10:31:34;;;;;;;12.07;6.53;;;;;;;16.97;79.09;97927.38;4971287;28;20066;-85
2021/10/03 10:34:19;;;;;;;26.03;14.17;;;;;;;16.97;79.57;97924.63;4976146;28;20055;-85
2021/10/03 10:36:54;;;;;;;20.50;12.85;;;;;;;17.10;81.14;97922.56;4975691;28;20055;-85
2021/10/03 10:39:28;;;;;;;11.98;6.85;;;;;;;17.10;80.76;97911.56;4976480;28;20067;-85
2021/10/03 10:42:23;;;;;;;6.80;3.10;;;;;;;17.12;77.44;97896.50;4975236;28;20086;-85
2021/10/03 10:44:54;;;;;;;2.78;2.00;;;;;;;17.23;73.65;97900.19;4975719;28;20142;-84
2021/10/03 10:47:28;;;;;;;3.05;1.60;;;;;;;17.40;72.26;97905.56;4976612;28;20110;-85
2021/10/03 10:49:57;;;;;;;2.40;1.75;;;;;;;17.61;71.15;97909.31;4976686;28;20443;-85
2021/10/03 10:53:20;;;;;;;1.83;1.55;;;;;;;17.59;71.69;97896.97;4973701;28;20145;-85
2021/10/03 10:56:07;;;;;;;4.53;1.65;;;;;;;17.76;71.37;97913.31;4972774;28;20055;-85
2021/10/03 10:59:13;;;;;;;4.05;1.85;;;;;;;17.70;70.79;97898.69;4976308;28;20384;-85
2021/10/03 11:02:17;;;;;;;2.22;1.75;;;;;;;17.79;70.36;97908.09;4955869;29;20146;-85
2021/10/03 11:08:20;;;;;;;2.83;1.58;;;;;;;17.90;69.08;97906.31;4963174;28;20521;-84
2021/10/03 11:11:34;;;;;;;2.08;1.50;;;;;;;17.98;67.23;97916.00;4973207;28;20065;-85
2021/10/03 11:14:21;;;;;;;2.42;1.73;;;;;;;17.90;68.33;97895.31;4976161;28;20129;-85
2021/10/03 11:16:50;;;;;;;3.90;2.00;;;;;;;17.79;68.46;97885.28;4970132;28;20043;-85
2021/10/03 11:19:37;;;;;;;4.50;2.13;;;;;;;17.92;68.43;97904.13;4974148;28;20051;-85
2021/10/03 11:22:13;;;;;;;3.78;1.98;;;;;;;17.98;68.25;97905.00;4985766;28;20304;-85
2021/10/03 11:24:47;;;;;;;3.28;1.92;;;;;;;17.97;68.19;97906.91;4961910;28;20403;-85
2021/10/03 11:27:20;;;;;;;3.05;1.67;;;;;;;17.92;68.30;97884.06;4974291;28;20406;-85
2021/10/03 11:29:50;;;;;;;7.95;2.03;;;;;;;17.96;68.55;97902.50;4976815;28;20051;-85
2021/10/03 11:32:23;;;;;;;8.18;2.47;;;;;;;17.97;68.67;97909.66;4976206;28;20582;-85
2021/10/03 11:34:53;;;;;;;3.60;1.85;;;;;;;17.90;68.45;97889.81;4983852;28;20043;-85
2021/10/03 11:37:30;;;;;;;2.70;1.98;;;;;;;17.88;70.02;97886.47;4994398;28;20058;-85
2021/10/03 11:40:09;;;;;;;;;;;;;;;;;;;;;
2021/10/03 11:42:45;;;;;;;10.32;2.42;;;;;;;17.89;71.64;97901.06;4975651;28;20493;-85
2021/10/03 11:45:25;;;;;;;2.85;2.20;;;;;;;17.82;74.03;97901.25;4967197;28;20046;-85
2021/10/03 11:48:26;;;;;;;9.65;2.42;;;;;;;17.72;76.29;97903.91;4975735;28;20403;-85
2021/10/03 11:51:00;;;;;;;10.00;6.25;;;;;;;17.86;76.14;97880.41;4971683;28;20092;-85
2021/10/03 11:56:39;;;;;;;11.65;6.80;;;;;;;18.04;76.27;97890.19;4973135;28;20063;-85
2021/10/03 11:59:09;;;;;;;6.93;3.38;;;;;;;18.04;80.80;97891.00;4975261;28;20451;-85
2021/10/03 12:05:00;;;;;;;7.45;3.55;;;;;;;17.93;80.09;97907.69;4946368;28;20046;-85
2021/10/03 12:07:36;;;;;;;9.15;3.75;;;;;;;17.78;81.34;97889.13;4962353;28;20066;-85
2021/10/03 12:10:23;;;;;;;8.07;3.63;;;;;;;17.82;81.38;97893.00;4970731;28;20074;-84
2021/10/03 12:12:55;;;;;;;8.57;3.50;;;;;;;17.82;84.31;97891.09;4955776;29;20051;-85
2021/10/03 12:18:53;;;;;;;4.18;2.92;;;;;;;17.75;82.60;97874.00;4974758;28;20062;-85
2021/10/03 12:21:40;;;;;;;3.70;2.17;;;;;;;17.87;80.49;97876.56;4970808;28;20414;-85
2021/10/03 12:24:22;;;;;;;4.65;3.17;;;;;;;18.06;81.80;97876.19;4974647;28;20053;-85
2021/10/03 12:26:55;;;;;;;7.53;3.17;;;;;;;18.11;82.24;97857.78;4974607;28;20477;-84
2021/10/03 12:29:25;;;;;;;6.55;3.85;;;;;;;18.35;82.21;97879.34;4974825;28;20046;-85